createdAt,value
2022-10-24T00:02:35.154Z,13.10
2022-10-24T00:05:10.281Z,13.10
2022-10-24T00:07:49.022Z,13.05
2022-10-24T00:10:29.488Z,12.98
2022-10-24T00:13:19.043Z,13.10
2022-10-24T00:16:10.154Z,13.14
2022-10-24T00:18:50.806Z,13.15
2022-10-24T00:21:27.000Z,13.04
2022-10-24T00:24:07.054Z,12.97
2022-10-24T00:26:42.757Z,12.99
2022-10-24T00:29:29.702Z,12.99
2022-10-24T00:32:15.391Z,12.97
2022-10-24T00:34:53.884Z,13.04
2022-10-24T00:37:35.075Z,13.11
2022-10-24T00:40:11.096Z,13.03
2022-10-24T00:42:59.591Z,12.97
2022-10-24T00:45:57.965Z,12.98
2022-10-24T00:48:56.541Z,12.99
2022-10-24T00:51:41.821Z,13.00
2022-10-24T00:54:25.883Z,12.92
2022-10-24T00:57:08.697Z,12.95
2022-10-24T00:59:50.182Z,12.91
2022-10-24T01:02:25.065Z,12.88
2022-10-24T01:05:05.362Z,12.87
2022-10-24T01:08:10.950Z,12.80
2022-10-24T01:10:56.447Z,12.87
2022-10-24T01:14:04.007Z,12.85
2022-10-24T01:16:58.245Z,12.88
2022-10-24T01:20:23.657Z,12.89
2022-10-24T01:23:40.226Z,12.87
2022-10-24T01:26:59.772Z,12.72
2022-10-24T01:29:48.883Z,12.76
2022-10-24T01:32:35.510Z,12.75
2022-10-24T01:35:42.657Z,12.70
2022-10-24T01:38:42.283Z,12.72
2022-10-24T01:41:23.132Z,12.71
2022-10-24T01:44:28.162Z,12.72
2022-10-24T01:47:19.090Z,12.67
2022-10-24T01:50:09.484Z,12.59
2022-10-24T01:52:48.099Z,12.63
2022-10-24T01:55:22.998Z,12.63
2022-10-24T01:58:04.185Z,12.56
2022-10-24T02:00:47.880Z,12.55
2022-10-24T02:03:32.568Z,12.54
2022-10-24T02:06:22.225Z,12.49
2022-10-24T02:11:49.387Z,12.51
2022-10-24T02:14:36.179Z,12.38
2022-10-24T02:17:11.350Z,12.44
2022-10-24T02:19:54.037Z,12.47
2022-10-24T02:22:34.398Z,12.58
2022-10-24T02:25:11.015Z,12.51
2022-10-24T02:27:54.593Z,12.53
2022-10-24T02:30:37.556Z,12.48
2022-10-24T02:33:19.215Z,12.42
2022-10-24T02:35:56.628Z,12.34
2022-10-24T02:38:41.561Z,12.33
2022-10-24T02:41:28.137Z,12.26
2022-10-24T02:44:14.413Z,12.20
2022-10-24T02:47:06.056Z,12.10
2022-10-24T02:49:49.145Z,12.11
2022-10-24T02:52:32.160Z,12.10
2022-10-24T02:55:08.120Z,12.11
2022-10-24T02:57:47.442Z,12.13
2022-10-24T03:00:22.614Z,12.10
2022-10-24T03:03:03.759Z,12.15
2022-10-24T03:05:57.040Z,11.98
2022-10-24T03:08:37.410Z,11.97
2022-10-24T03:11:18.411Z,12.01
2022-10-24T03:13:55.709Z,12.07
2022-10-24T03:16:36.374Z,12.11
2022-10-24T03:19:20.532Z,12.10
2022-10-24T03:21:58.297Z,12.03
2022-10-24T03:24:43.306Z,12.16
2022-10-24T03:27:17.298Z,12.09
2022-10-24T03:29:52.050Z,12.15
2022-10-24T03:32:34.581Z,12.18
2022-10-24T03:35:18.031Z,12.12
2022-10-24T03:38:09.977Z,12.07
2022-10-24T03:41:08.118Z,12.07
2022-10-24T03:43:59.401Z,12.02
2022-10-24T03:46:44.558Z,11.98
2022-10-24T03:49:28.927Z,11.94
2022-10-24T03:52:11.026Z,12.03
2022-10-24T03:54:52.118Z,11.95
2022-10-24T03:57:38.418Z,11.89
2022-10-24T04:00:20.991Z,11.87
2022-10-24T04:02:54.129Z,11.91
2022-10-24T04:05:32.049Z,11.95
2022-10-24T04:08:06.171Z,11.82
2022-10-24T04:10:36.992Z,11.88
2022-10-24T04:13:17.890Z,11.92
2022-10-24T04:15:58.404Z,11.91
2022-10-24T04:18:36.189Z,11.76
2022-10-24T04:21:16.818Z,11.86
2022-10-24T04:23:59.830Z,11.87
2022-10-24T04:26:39.075Z,11.92
2022-10-24T04:29:26.339Z,11.93
2022-10-24T04:31:59.736Z,11.81
2022-10-24T04:34:40.567Z,11.85
2022-10-24T04:37:14.049Z,11.85
2022-10-24T04:39:53.868Z,11.81
2022-10-24T04:42:31.670Z,11.76
2022-10-24T04:45:11.442Z,11.73
2022-10-24T04:47:44.230Z,11.80
2022-10-24T04:50:24.799Z,11.79
2022-10-24T04:52:59.801Z,11.85
2022-10-24T04:55:43.386Z,11.65
2022-10-24T04:58:37.761Z,11.76
2022-10-24T05:01:21.406Z,11.87
2022-10-24T05:06:45.185Z,11.71
2022-10-24T05:09:34.270Z,11.78
2022-10-24T05:15:05.748Z,11.74
2022-10-24T05:17:38.319Z,11.73
2022-10-24T05:20:14.298Z,11.69
2022-10-24T05:22:54.809Z,11.69
2022-10-24T05:25:44.330Z,11.69
2022-10-24T05:28:33.423Z,11.69
2022-10-24T05:31:08.915Z,11.69
2022-10-24T05:33:43.951Z,11.71
2022-10-24T05:36:24.354Z,11.74
2022-10-24T05:39:09.204Z,11.64
2022-10-24T05:41:55.323Z,11.69
2022-10-24T05:44:38.708Z,11.73
2022-10-24T05:47:35.154Z,11.76
2022-10-24T05:50:13.805Z,11.70
2022-10-24T05:52:49.137Z,11.75
2022-10-24T05:55:32.114Z,11.77
2022-10-24T05:58:14.514Z,11.80
2022-10-24T06:00:54.064Z,11.73
2022-10-24T06:03:42.492Z,11.75
2022-10-24T06:06:24.618Z,11.82
2022-10-24T06:09:08.797Z,11.78
2022-10-24T06:11:52.105Z,11.70
2022-10-24T06:14:27.944Z,11.74
2022-10-24T06:17:02.250Z,11.86
2022-10-24T06:19:43.009Z,11.88
2022-10-24T06:22:27.735Z,11.89
2022-10-24T06:25:05.708Z,11.90
2022-10-24T06:27:51.705Z,11.95
2022-10-24T06:30:31.615Z,11.94
2022-10-24T06:33:09.540Z,12.00
2022-10-24T06:35:58.047Z,11.94
2022-10-24T06:38:38.024Z,11.92
2022-10-24T06:41:22.516Z,11.79
2022-10-24T06:43:58.156Z,11.86
2022-10-24T06:46:32.769Z,11.73
2022-10-24T06:49:11.471Z,11.78
2022-10-24T06:51:55.591Z,11.82
2022-10-24T06:54:33.818Z,11.78
2022-10-24T06:57:11.712Z,11.85
2022-10-24T06:59:54.578Z,11.84
2022-10-24T07:02:40.952Z,11.91
2022-10-24T07:05:26.447Z,11.86
2022-10-24T07:08:15.401Z,11.82
2022-10-24T07:10:50.301Z,11.83
2022-10-24T07:13:25.013Z,11.92
2022-10-24T07:16:04.694Z,11.91
2022-10-24T07:18:48.809Z,11.97
2022-10-24T07:21:24.864Z,11.93
2022-10-24T07:24:09.176Z,12.05
2022-10-24T07:26:48.408Z,12.11
2022-10-24T07:29:28.467Z,12.15
2022-10-24T07:32:02.218Z,12.11
2022-10-24T07:34:42.823Z,12.20
2022-10-24T07:37:26.940Z,12.28
2022-10-24T07:40:12.197Z,12.35
2022-10-24T07:42:50.036Z,12.50
2022-10-24T07:45:28.323Z,12.48
2022-10-24T07:48:08.860Z,12.44
2022-10-24T07:50:51.255Z,12.35
2022-10-24T07:53:32.134Z,12.35
2022-10-24T07:56:11.985Z,12.37
2022-10-24T07:58:58.202Z,12.44
2022-10-24T08:01:32.212Z,12.51
2022-10-24T08:04:10.464Z,12.49
2022-10-24T08:06:52.104Z,12.52
2022-10-24T08:09:39.741Z,12.61
2022-10-24T08:12:22.908Z,12.77
2022-10-24T08:15:01.397Z,13.00
2022-10-24T08:17:44.695Z,13.12
2022-10-24T08:20:21.063Z,13.11
2022-10-24T08:22:56.167Z,13.15
2022-10-24T08:25:37.118Z,13.14
2022-10-24T08:28:12.324Z,13.18
2022-10-24T08:30:53.040Z,13.40
2022-10-24T08:33:33.348Z,13.37
2022-10-24T08:36:31.895Z,13.32
2022-10-24T08:39:12.440Z,13.37
2022-10-24T08:42:07.210Z,13.58
2022-10-24T08:44:47.351Z,13.70
2022-10-24T08:48:03.029Z,13.68
2022-10-24T08:50:43.588Z,13.65
2022-10-24T08:53:23.971Z,13.70
2022-10-24T08:56:05.630Z,13.68
2022-10-24T08:58:52.190Z,13.65
2022-10-24T09:01:35.450Z,13.69
2022-10-24T09:04:19.306Z,13.72
2022-10-24T09:07:01.113Z,13.68
2022-10-24T09:09:51.136Z,13.79
2022-10-24T09:12:38.550Z,13.94
2022-10-24T09:15:26.290Z,13.90
2022-10-24T09:18:04.537Z,13.91
2022-10-24T09:20:41.702Z,13.80
2022-10-24T09:23:24.341Z,13.67
2022-10-24T09:26:06.734Z,13.76
2022-10-24T09:28:46.430Z,13.60
2022-10-24T09:31:30.451Z,13.51
2022-10-24T09:34:11.294Z,13.49
2022-10-24T09:36:48.457Z,13.60
2022-10-24T09:39:34.752Z,13.57
2022-10-24T09:42:20.467Z,13.62
2022-10-24T09:45:02.881Z,13.70
2022-10-24T09:47:46.784Z,13.56
2022-10-24T09:50:33.524Z,13.65
2022-10-24T09:53:10.813Z,13.68
2022-10-24T09:55:50.699Z,13.81
2022-10-24T09:58:34.548Z,13.83
2022-10-24T10:01:29.040Z,13.84
2022-10-24T10:04:17.209Z,13.85
2022-10-24T10:06:51.947Z,13.94
2022-10-24T10:09:56.506Z,13.90
2022-10-24T10:12:44.151Z,13.88
2022-10-24T10:15:40.089Z,13.70
2022-10-24T10:18:35.650Z,13.68
2022-10-24T10:21:59.741Z,13.72
2022-10-24T10:24:49.574Z,13.65
2022-10-24T10:27:44.263Z,13.64
2022-10-24T10:30:29.498Z,13.67
2022-10-24T10:33:57.170Z,13.80
2022-10-24T10:36:49.427Z,13.91
2022-10-24T10:39:40.782Z,14.01
2022-10-24T10:42:27.043Z,14.02
2022-10-24T10:45:02.341Z,13.99
2022-10-24T10:47:58.779Z,14.16
2022-10-24T10:50:41.763Z,14.20
2022-10-24T10:53:35.484Z,14.27
2022-10-24T10:56:36.767Z,14.31
2022-10-24T10:59:29.580Z,14.28
2022-10-24T11:02:21.923Z,14.29
2022-10-24T11:05:35.199Z,14.37
2022-10-24T11:08:42.600Z,14.44
2022-10-24T11:11:27.790Z,14.40
2022-10-24T11:14:08.981Z,14.50
2022-10-24T11:16:47.960Z,14.56
2022-10-24T11:20:05.873Z,14.46
2022-10-24T11:22:43.397Z,14.38
2022-10-24T11:25:37.269Z,14.36
2022-10-24T11:28:31.666Z,14.50
2022-10-24T11:31:29.844Z,14.61
2022-10-24T11:34:22.476Z,14.57
2022-10-24T11:37:29.548Z,14.66
2022-10-24T11:40:08.915Z,14.75
2022-10-24T11:43:13.252Z,14.86
2022-10-24T11:46:15.022Z,14.75
2022-10-24T11:49:19.794Z,14.74
2022-10-24T11:52:19.992Z,14.89
2022-10-24T11:55:14.710Z,14.98
2022-10-24T11:57:59.431Z,15.04
2022-10-24T12:01:03.406Z,15.21
2022-10-24T12:04:09.937Z,15.32
2022-10-24T12:07:21.181Z,15.52
2022-10-24T12:10:15.477Z,15.57
2022-10-24T12:13:00.782Z,15.59
2022-10-24T12:16:01.491Z,15.58
2022-10-24T12:18:42.471Z,15.60
2022-10-24T12:21:19.310Z,15.59
2022-10-24T12:24:02.091Z,15.50
2022-10-24T12:26:43.499Z,15.32
2022-10-24T12:29:28.447Z,15.32
2022-10-24T12:32:20.188Z,15.29
2022-10-24T12:35:29.454Z,15.34
2022-10-24T12:38:27.442Z,15.24
2022-10-24T12:41:09.720Z,15.34
2022-10-24T12:43:54.061Z,15.38
2022-10-24T12:46:32.469Z,15.31
2022-10-24T12:49:26.779Z,15.37
2022-10-24T12:52:04.917Z,15.37
2022-10-24T12:54:51.113Z,15.14
2022-10-24T12:57:28.777Z,14.92
2022-10-24T13:00:07.907Z,14.96
2022-10-24T13:03:13.605Z,14.86
2022-10-24T13:06:06.433Z,14.63
2022-10-24T13:09:09.097Z,14.85
2022-10-24T13:12:03.089Z,14.87
2022-10-24T13:15:00.648Z,14.82
2022-10-24T13:17:59.831Z,14.85
2022-10-24T13:20:41.964Z,14.95
2022-10-24T13:23:34.560Z,14.95
2022-10-24T13:26:08.868Z,14.89
2022-10-24T13:28:47.143Z,14.92
2022-10-24T13:31:48.203Z,14.73
2022-10-24T13:34:43.296Z,14.81
2022-10-24T13:37:36.730Z,14.92
2022-10-24T13:40:33.302Z,14.91
2022-10-24T13:43:24.249Z,14.90
2022-10-24T13:46:12.125Z,15.03
2022-10-24T13:48:56.811Z,15.17
2022-10-24T13:51:43.404Z,15.24
2022-10-24T13:54:28.381Z,15.25
2022-10-24T13:57:24.185Z,15.25
2022-10-24T14:00:00.490Z,15.11
2022-10-24T14:02:43.436Z,15.11
2022-10-24T14:05:38.928Z,14.90
2022-10-24T14:08:28.667Z,14.90
2022-10-24T14:11:08.705Z,15.00
2022-10-24T14:13:53.355Z,15.01
2022-10-24T14:16:41.293Z,14.97
2022-10-24T14:19:28.293Z,14.98
2022-10-24T14:22:19.136Z,14.96
2022-10-24T14:24:54.914Z,14.99
2022-10-24T14:27:35.339Z,14.91
2022-10-24T14:30:17.404Z,14.96
2022-10-24T14:33:09.795Z,14.88
2022-10-24T14:35:47.085Z,14.88
2022-10-24T14:38:24.981Z,14.83
2022-10-24T14:41:09.440Z,14.88
2022-10-24T14:43:45.746Z,14.83
2022-10-24T14:46:26.516Z,14.78
2022-10-24T14:49:27.168Z,14.76
2022-10-24T14:52:34.228Z,14.69
2022-10-24T14:55:23.474Z,14.64
2022-10-24T14:58:14.715Z,14.66
2022-10-24T15:00:52.649Z,14.65
2022-10-24T15:03:54.162Z,14.63
2022-10-24T15:06:42.090Z,14.62
2022-10-24T15:09:23.699Z,14.62
2022-10-24T15:12:10.491Z,14.61
2022-10-24T15:14:51.853Z,14.63
2022-10-24T15:17:32.697Z,14.64
2022-10-24T15:20:18.338Z,14.56
2022-10-24T15:23:09.789Z,14.55
2022-10-24T15:25:51.119Z,14.54
2022-10-24T15:28:40.225Z,14.49
2022-10-24T15:31:27.515Z,14.44
2022-10-24T15:34:11.793Z,14.43
2022-10-24T15:36:50.251Z,14.41
2022-10-24T15:39:29.205Z,14.42
2022-10-24T15:42:20.124Z,14.38
2022-10-24T15:44:57.436Z,14.40
2022-10-24T15:47:35.003Z,14.34
2022-10-24T15:50:15.387Z,14.34
2022-10-24T15:53:06.941Z,14.29
2022-10-24T15:55:47.828Z,14.28
2022-10-24T15:58:28.962Z,14.27
2022-10-24T16:01:13.347Z,14.22
2022-10-24T16:03:51.428Z,14.23
2022-10-24T16:06:35.995Z,14.22
2022-10-24T16:09:27.506Z,14.18
2022-10-24T16:12:03.918Z,14.06
2022-10-24T16:14:40.167Z,14.01
2022-10-24T16:17:24.468Z,14.07
2022-10-24T16:20:21.256Z,13.97
2022-10-24T16:22:59.332Z,13.97
2022-10-24T16:25:37.899Z,13.98
2022-10-24T16:28:26.428Z,14.03
2022-10-24T16:31:06.829Z,13.98
2022-10-24T16:33:42.653Z,14.01
2022-10-24T16:36:25.523Z,14.00
2022-10-24T16:39:12.014Z,14.03
2022-10-24T16:41:50.940Z,13.97
2022-10-24T16:44:34.043Z,14.01
2022-10-24T16:47:14.955Z,14.01
2022-10-24T16:50:01.029Z,14.06
2022-10-24T16:52:39.561Z,14.00
2022-10-24T16:55:14.262Z,13.92
2022-10-24T16:58:00.595Z,13.95
2022-10-24T17:00:38.953Z,13.93
2022-10-24T17:03:13.790Z,13.87
2022-10-24T17:06:03.807Z,13.87
2022-10-24T17:08:44.313Z,13.86
2022-10-24T17:11:45.711Z,13.86
2022-10-24T17:14:33.561Z,13.85
2022-10-24T17:17:15.943Z,13.84
2022-10-24T17:19:54.057Z,13.85
2022-10-24T17:22:26.786Z,13.86
2022-10-24T17:25:09.432Z,13.84
2022-10-24T17:28:00.221Z,13.78
2022-10-24T17:30:37.897Z,13.74
2022-10-24T17:33:21.432Z,13.74
2022-10-24T17:36:01.934Z,13.73
2022-10-24T17:39:05.232Z,13.74
2022-10-24T17:41:45.042Z,13.68
2022-10-24T17:44:24.153Z,13.64
2022-10-24T17:47:06.001Z,13.62
2022-10-24T17:49:41.370Z,13.52
2022-10-24T17:52:27.229Z,13.52
2022-10-24T17:55:02.884Z,13.50
2022-10-24T17:57:39.919Z,13.44
2022-10-24T18:00:13.530Z,13.39
2022-10-24T18:02:55.854Z,13.32
2022-10-24T18:05:26.233Z,13.33
2022-10-24T18:08:09.073Z,13.31
2022-10-24T18:10:50.276Z,13.34
2022-10-24T18:13:33.639Z,13.29
2022-10-24T18:16:12.003Z,13.22
2022-10-24T18:18:50.514Z,13.20
2022-10-24T18:21:29.517Z,13.17
2022-10-24T18:24:10.674Z,13.10
2022-10-24T18:26:49.711Z,13.02
2022-10-24T18:29:25.086Z,13.00
2022-10-24T18:32:08.212Z,12.94
2022-10-24T18:35:02.805Z,12.88
2022-10-24T18:37:37.775Z,12.84
2022-10-24T18:40:11.856Z,12.73
2022-10-24T18:43:06.054Z,12.72
2022-10-24T18:45:41.796Z,12.67
2022-10-24T18:48:16.802Z,12.67
2022-10-24T18:50:56.606Z,12.63
2022-10-24T18:53:36.305Z,12.63
2022-10-24T18:56:21.181Z,12.65
2022-10-24T18:58:57.961Z,12.60
2022-10-24T19:01:55.019Z,12.50
2022-10-24T19:04:37.229Z,12.46
2022-10-24T19:07:12.306Z,12.42
2022-10-24T19:09:47.372Z,12.40
2022-10-24T19:12:22.337Z,12.43
2022-10-24T19:15:04.231Z,12.46
2022-10-24T19:17:46.023Z,12.44
2022-10-24T19:20:26.981Z,12.19
2022-10-24T19:23:06.202Z,12.12
2022-10-24T19:25:50.142Z,12.14
2022-10-24T19:28:20.868Z,12.09
2022-10-24T19:31:14.929Z,12.05
2022-10-24T19:33:50.014Z,11.95
2022-10-24T19:36:28.402Z,11.95
2022-10-24T19:39:12.380Z,11.92
2022-10-24T19:41:47.774Z,11.83
2022-10-24T19:44:25.630Z,11.72
2022-10-24T19:47:03.501Z,11.68
2022-10-24T19:49:47.806Z,11.66
2022-10-24T19:52:22.510Z,11.66
2022-10-24T19:54:57.877Z,11.64
2022-10-24T19:57:45.488Z,11.57
2022-10-24T20:00:26.167Z,11.62
2022-10-24T20:03:00.970Z,11.62
2022-10-24T20:05:37.070Z,11.61
2022-10-24T20:08:15.147Z,11.56
2022-10-24T20:10:57.658Z,11.54
2022-10-24T20:13:33.684Z,11.48
2022-10-24T20:16:25.285Z,11.45
2022-10-24T20:19:06.452Z,11.43
2022-10-24T20:21:45.316Z,11.43
2022-10-24T20:24:17.897Z,11.44
2022-10-24T20:27:02.620Z,11.41
2022-10-24T20:29:37.982Z,11.33
2022-10-24T20:32:17.363Z,11.37
2022-10-24T20:34:56.145Z,11.37
2022-10-24T20:37:33.501Z,11.37
2022-10-24T20:40:18.027Z,11.38
2022-10-24T20:43:10.271Z,11.44
2022-10-24T20:45:59.885Z,11.41
2022-10-24T20:48:36.327Z,11.45
2022-10-24T20:51:17.587Z,11.47
2022-10-24T20:53:55.436Z,11.51
2022-10-24T20:56:30.999Z,11.51
2022-10-24T20:59:11.553Z,11.51
2022-10-24T21:01:47.262Z,11.62
2022-10-24T21:04:25.581Z,11.63
2022-10-24T21:07:08.467Z,11.62
2022-10-24T21:09:51.349Z,11.61
2022-10-24T21:12:34.255Z,11.64
2022-10-24T21:15:35.328Z,11.71
2022-10-24T21:18:13.518Z,11.67
2022-10-24T21:20:51.438Z,11.65
2022-10-24T21:23:29.322Z,11.70
2022-10-24T21:26:14.197Z,11.69
2022-10-24T21:29:08.933Z,11.71
2022-10-24T21:32:05.758Z,11.69
2022-10-24T21:34:43.977Z,11.76
2022-10-24T21:37:21.856Z,11.87
2022-10-24T21:40:05.376Z,11.85
2022-10-24T21:42:43.515Z,11.74
2022-10-24T21:45:25.020Z,11.78
2022-10-24T21:48:00.011Z,11.83
2022-10-24T21:53:26.540Z,11.87
2022-10-24T21:56:21.377Z,12.07
2022-10-24T21:59:05.828Z,12.03
2022-10-24T22:01:42.296Z,12.11
2022-10-24T22:04:30.477Z,12.04
2022-10-24T22:07:10.286Z,12.06
2022-10-24T22:09:45.418Z,12.04
2022-10-24T22:12:21.022Z,12.11
2022-10-24T22:14:56.234Z,12.13
2022-10-24T22:17:30.845Z,12.15
2022-10-24T22:20:02.712Z,12.15
2022-10-24T22:22:39.977Z,12.13
2022-10-24T22:25:15.776Z,12.15
2022-10-24T22:27:59.474Z,12.16
2022-10-24T22:30:51.176Z,12.06
2022-10-24T22:33:41.518Z,12.13
2022-10-24T22:36:27.057Z,12.17
2022-10-24T22:39:07.832Z,12.22
2022-10-24T22:41:54.992Z,12.27
2022-10-24T22:44:31.852Z,12.31
2022-10-24T22:47:27.576Z,12.30
2022-10-24T22:50:10.201Z,12.30
2022-10-24T22:52:58.407Z,12.37
2022-10-24T22:55:49.796Z,12.41
2022-10-24T22:58:24.722Z,12.41
2022-10-24T23:01:00.977Z,12.49
2022-10-24T23:03:48.463Z,12.44
2022-10-24T23:06:37.633Z,12.48
2022-10-24T23:09:17.042Z,12.46
2022-10-24T23:11:57.636Z,12.48
2022-10-24T23:14:39.467Z,12.48
2022-10-24T23:17:19.991Z,12.49
2022-10-24T23:19:58.659Z,12.51
2022-10-24T23:22:37.108Z,12.55
2022-10-24T23:25:18.360Z,12.57
2022-10-24T23:28:12.274Z,12.60
2022-10-24T23:30:49.916Z,12.62
2022-10-24T23:33:36.316Z,12.64
2022-10-24T23:36:25.207Z,12.63
2022-10-24T23:39:09.476Z,12.63
2022-10-24T23:41:50.295Z,12.65
2022-10-24T23:44:28.829Z,12.66
2022-10-24T23:47:27.028Z,12.71
2022-10-24T23:50:17.597Z,12.76
2022-10-24T23:53:06.340Z,12.70
2022-10-24T23:55:43.886Z,12.70
2022-10-24T23:58:23.741Z,12.68
